sensor_id;sensor_type;location;lat;lon;timestamp;P1;durP1;ratioP1;P2;durP2;ratioP2
57443;SDS011;43289;52.962;6.196;2024-03-17T00:04:04;6.13;;;1.70;;
57443;SDS011;43289;52.962;6.196;2024-03-17T00:06:30;3.05;;;1.55;;
57443;SDS011;43289;52.962;6.196;2024-03-17T00:08:56;3.30;;;1.40;;
57443;SDS011;43289;52.962;6.196;2024-03-17T00:11:22;3.95;;;1.50;;
57443;SDS011;43289;52.962;6.196;2024-03-17T00:13:47;4.30;;;2.00;;
57443;SDS011;43289;52.962;6.196;2024-03-17T00:16:13;5.65;;;1.70;;
57443;SDS011;43289;52.962;6.196;2024-03-17T00:18:42;6.45;;;1.85;;
57443;SDS011;43289;52.962;6.196;2024-03-17T00:21:07;3.08;;;1.40;;
57443;SDS011;43289;52.962;6.196;2024-03-17T00:23:33;3.63;;;1.70;;
57443;SDS011;43289;52.962;6.196;2024-03-17T00:25:59;3.78;;;1.95;;
57443;SDS011;43289;52.962;6.196;2024-03-17T00:28:25;3.65;;;2.08;;
57443;SDS011;43289;52.962;6.196;2024-03-17T00:30:51;4.93;;;1.88;;
57443;SDS011;43289;52.962;6.196;2024-03-17T00:33:16;4.20;;;2.13;;
57443;SDS011;43289;52.962;6.196;2024-03-17T00:35:44;4.43;;;2.08;;
57443;SDS011;43289;52.962;6.196;2024-03-17T00:38:10;5.22;;;2.20;;
57443;SDS011;43289;52.962;6.196;2024-03-17T00:40:51;4.88;;;2.33;;
57443;SDS011;43289;52.962;6.196;2024-03-17T00:43:17;5.00;;;2.63;;
57443;SDS011;43289;52.962;6.196;2024-03-17T00:45:43;6.75;;;2.72;;
57443;SDS011;43289;52.962;6.196;2024-03-17T00:48:08;9.43;;;2.42;;
57443;SDS011;43289;52.962;6.196;2024-03-17T00:50:34;7.13;;;2.22;;
57443;SDS011;43289;52.962;6.196;2024-03-17T00:53:01;8.73;;;2.10;;
57443;SDS011;43289;52.962;6.196;2024-03-17T00:55:28;3.97;;;2.25;;
57443;SDS011;43289;52.962;6.196;2024-03-17T00:57:54;3.95;;;2.00;;
57443;SDS011;43289;52.962;6.196;2024-03-17T01:00:20;3.47;;;1.85;;
57443;SDS011;43289;52.962;6.196;2024-03-17T01:02:46;6.38;;;2.50;;
57443;SDS011;43289;52.962;6.196;2024-03-17T01:05:12;5.55;;;2.55;;
57443;SDS011;43289;52.962;6.196;2024-03-17T01:07:51;4.75;;;2.15;;
57443;SDS011;43289;52.962;6.196;2024-03-17T01:10:18;6.85;;;2.80;;
57443;SDS011;43289;52.962;6.196;2024-03-17T01:12:44;4.43;;;2.22;;
57443;SDS011;43289;52.962;6.196;2024-03-17T01:15:10;10.35;;;2.70;;
57443;SDS011;43289;52.962;6.196;2024-03-17T01:17:36;7.60;;;2.45;;
57443;SDS011;43289;52.962;6.196;2024-03-17T01:20:02;7.75;;;2.30;;
57443;SDS011;43289;52.962;6.196;2024-03-17T01:22:29;6.03;;;2.20;;
57443;SDS011;43289;52.962;6.196;2024-03-17T01:25:04;7.43;;;2.63;;
57443;SDS011;43289;52.962;6.196;2024-03-17T01:29:56;7.60;;;2.97;;
57443;SDS011;43289;52.962;6.196;2024-03-17T01:32:22;6.50;;;1.77;;
57443;SDS011;43289;52.962;6.196;2024-03-17T01:34:48;6.20;;;2.58;;
57443;SDS011;43289;52.962;6.196;2024-03-17T01:37:13;9.43;;;2.22;;
57443;SDS011;43289;52.962;6.196;2024-03-17T01:42:38;4.60;;;2.05;;
57443;SDS011;43289;52.962;6.196;2024-03-17T01:47:42;7.75;;;2.83;;
57443;SDS011;43289;52.962;6.196;2024-03-17T01:50:09;5.38;;;2.13;;
57443;SDS011;43289;52.962;6.196;2024-03-17T01:52:37;4.38;;;2.28;;
57443;SDS011;43289;52.962;6.196;2024-03-17T01:55:03;6.97;;;2.05;;
57443;SDS011;43289;52.962;6.196;2024-03-17T01:57:29;5.53;;;2.22;;
57443;SDS011;43289;52.962;6.196;2024-03-17T01:59:56;7.15;;;2.00;;
57443;SDS011;43289;52.962;6.196;2024-03-17T02:02:23;4.03;;;1.92;;
57443;SDS011;43289;52.962;6.196;2024-03-17T02:04:49;5.22;;;2.25;;
57443;SDS011;43289;52.962;6.196;2024-03-17T02:07:15;4.78;;;1.88;;
57443;SDS011;43289;52.962;6.196;2024-03-17T02:09:41;5.95;;;1.95;;
57443;SDS011;43289;52.962;6.196;2024-03-17T02:12:08;7.22;;;2.58;;
57443;SDS011;43289;52.962;6.196;2024-03-17T02:14:35;12.20;;;2.58;;
57443;SDS011;43289;52.962;6.196;2024-03-17T02:17:02;4.65;;;2.22;;
57443;SDS011;43289;52.962;6.196;2024-03-17T02:19:29;10.02;;;2.63;;
57443;SDS011;43289;52.962;6.196;2024-03-17T02:21:55;9.35;;;2.83;;
57443;SDS011;43289;52.962;6.196;2024-03-17T02:24:31;6.55;;;2.85;;
57443;SDS011;43289;52.962;6.196;2024-03-17T02:26:57;8.48;;;3.30;;
57443;SDS011;43289;52.962;6.196;2024-03-17T02:29:23;14.18;;;3.72;;
57443;SDS011;43289;52.962;6.196;2024-03-17T02:35:12;9.00;;;3.35;;
57443;SDS011;43289;52.962;6.196;2024-03-17T02:37:38;8.45;;;3.42;;
57443;SDS011;43289;52.962;6.196;2024-03-17T02:40:04;9.43;;;3.10;;
57443;SDS011;43289;52.962;6.196;2024-03-17T02:42:31;7.63;;;3.53;;
57443;SDS011;43289;52.962;6.196;2024-03-17T02:44:57;10.32;;;3.38;;
57443;SDS011;43289;52.962;6.196;2024-03-17T02:47:23;6.95;;;3.60;;
57443;SDS011;43289;52.962;6.196;2024-03-17T02:49:49;9.63;;;3.60;;
57443;SDS011;43289;52.962;6.196;2024-03-17T02:52:17;9.95;;;4.00;;
57443;SDS011;43289;52.962;6.196;2024-03-17T02:54:43;9.15;;;3.72;;
57443;SDS011;43289;52.962;6.196;2024-03-17T02:57:10;9.57;;;3.65;;
57443;SDS011;43289;52.962;6.196;2024-03-17T02:59:36;11.68;;;3.83;;
57443;SDS011;43289;52.962;6.196;2024-03-17T03:02:02;6.45;;;3.20;;
57443;SDS011;43289;52.962;6.196;2024-03-17T03:04:29;9.75;;;3.97;;
57443;SDS011;43289;52.962;6.196;2024-03-17T03:06:55;12.68;;;4.25;;
57443;SDS011;43289;52.962;6.196;2024-03-17T03:09:20;7.97;;;3.60;;
57443;SDS011;43289;52.962;6.196;2024-03-17T03:14:26;7.68;;;3.97;;
57443;SDS011;43289;52.962;6.196;2024-03-17T03:16:52;6.50;;;3.13;;
57443;SDS011;43289;52.962;6.196;2024-03-17T03:19:18;10.05;;;3.90;;
57443;SDS011;43289;52.962;6.196;2024-03-17T03:21:45;8.60;;;3.65;;
57443;SDS011;43289;52.962;6.196;2024-03-17T03:24:11;9.02;;;4.10;;
57443;SDS011;43289;52.962;6.196;2024-03-17T03:26:39;8.77;;;3.35;;
57443;SDS011;43289;52.962;6.196;2024-03-17T03:29:04;10.57;;;4.30;;
57443;SDS011;43289;52.962;6.196;2024-03-17T03:31:33;10.20;;;4.18;;
57443;SDS011;43289;52.962;6.196;2024-03-17T03:33:59;10.60;;;3.47;;
57443;SDS011;43289;52.962;6.196;2024-03-17T03:36:28;6.25;;;3.00;;
57443;SDS011;43289;52.962;6.196;2024-03-17T03:38:54;11.77;;;3.97;;
57443;SDS011;43289;52.962;6.196;2024-03-17T03:41:22;8.75;;;2.80;;
57443;SDS011;43289;52.962;6.196;2024-03-17T03:43:48;10.95;;;4.35;;
57443;SDS011;43289;52.962;6.196;2024-03-17T03:46:14;9.65;;;3.50;;
57443;SDS011;43289;52.962;6.196;2024-03-17T03:48:40;6.30;;;3.40;;
57443;SDS011;43289;52.962;6.196;2024-03-17T03:51:07;7.30;;;3.38;;
57443;SDS011;43289;52.962;6.196;2024-03-17T03:53:33;8.65;;;3.50;;
57443;SDS011;43289;52.962;6.196;2024-03-17T03:55:59;7.25;;;2.85;;
57443;SDS011;43289;52.962;6.196;2024-03-17T03:58:31;9.10;;;3.85;;
57443;SDS011;43289;52.962;6.196;2024-03-17T04:01:03;10.48;;;3.42;;
57443;SDS011;43289;52.962;6.196;2024-03-17T04:03:30;7.38;;;3.50;;
57443;SDS011;43289;52.962;6.196;2024-03-17T04:06:09;8.63;;;3.80;;
57443;SDS011;43289;52.962;6.196;2024-03-17T04:08:36;9.77;;;3.22;;
57443;SDS011;43289;52.962;6.196;2024-03-17T04:11:05;10.18;;;3.60;;
57443;SDS011;43289;52.962;6.196;2024-03-17T04:13:31;8.20;;;3.38;;
57443;SDS011;43289;52.962;6.196;2024-03-17T04:15:58;12.18;;;4.15;;
57443;SDS011;43289;52.962;6.196;2024-03-17T04:18:27;11.88;;;4.85;;
57443;SDS011;43289;52.962;6.196;2024-03-17T04:24:37;10.65;;;3.85;;
57443;SDS011;43289;52.962;6.196;2024-03-17T04:27:03;7.43;;;3.78;;
57443;SDS011;43289;52.962;6.196;2024-03-17T04:29:29;7.88;;;3.33;;
57443;SDS011;43289;52.962;6.196;2024-03-17T04:31:55;12.25;;;3.50;;
57443;SDS011;43289;52.962;6.196;2024-03-17T04:34:20;9.25;;;3.85;;
57443;SDS011;43289;52.962;6.196;2024-03-17T04:36:46;10.55;;;4.38;;
57443;SDS011;43289;52.962;6.196;2024-03-17T04:39:12;14.68;;;4.07;;
57443;SDS011;43289;52.962;6.196;2024-03-17T04:41:38;6.25;;;3.13;;
57443;SDS011;43289;52.962;6.196;2024-03-17T04:44:06;10.60;;;3.75;;
57443;SDS011;43289;52.962;6.196;2024-03-17T04:46:32;6.95;;;3.58;;
57443;SDS011;43289;52.962;6.196;2024-03-17T04:48:58;7.70;;;4.40;;
57443;SDS011;43289;52.962;6.196;2024-03-17T04:51:23;10.40;;;4.35;;
57443;SDS011;43289;52.962;6.196;2024-03-17T04:53:49;8.57;;;3.20;;
57443;SDS011;43289;52.962;6.196;2024-03-17T04:56:15;8.52;;;3.30;;
57443;SDS011;43289;52.962;6.196;2024-03-17T04:58:41;9.25;;;5.22;;
57443;SDS011;43289;52.962;6.196;2024-03-17T05:01:07;8.00;;;4.60;;
57443;SDS011;43289;52.962;6.196;2024-03-17T05:03:33;10.30;;;4.20;;
57443;SDS011;43289;52.962;6.196;2024-03-17T05:06:03;8.32;;;3.60;;
57443;SDS011;43289;52.962;6.196;2024-03-17T05:08:30;7.13;;;3.50;;
57443;SDS011;43289;52.962;6.196;2024-03-17T05:10:57;9.73;;;4.07;;
57443;SDS011;43289;52.962;6.196;2024-03-17T05:13:23;12.93;;;4.65;;
57443;SDS011;43289;52.962;6.196;2024-03-17T05:15:50;7.18;;;3.65;;
57443;SDS011;43289;52.962;6.196;2024-03-17T05:18:15;8.02;;;3.35;;
57443;SDS011;43289;52.962;6.196;2024-03-17T05:20:41;12.55;;;4.07;;
57443;SDS011;43289;52.962;6.196;2024-03-17T05:23:07;10.32;;;4.47;;
57443;SDS011;43289;52.962;6.196;2024-03-17T05:25:32;12.65;;;4.15;;
57443;SDS011;43289;52.962;6.196;2024-03-17T05:28:01;9.65;;;4.20;;
57443;SDS011;43289;52.962;6.196;2024-03-17T05:30:27;8.50;;;4.15;;
57443;SDS011;43289;52.962;6.196;2024-03-17T05:32:54;12.13;;;4.35;;
57443;SDS011;43289;52.962;6.196;2024-03-17T05:35:20;10.50;;;4.63;;
57443;SDS011;43289;52.962;6.196;2024-03-17T05:41:08;14.23;;;5.43;;
57443;SDS011;43289;52.962;6.196;2024-03-17T05:43:38;9.63;;;3.67;;
57443;SDS011;43289;52.962;6.196;2024-03-17T05:46:07;12.32;;;4.18;;
57443;SDS011;43289;52.962;6.196;2024-03-17T05:48:34;9.15;;;3.78;;
57443;SDS011;43289;52.962;6.196;2024-03-17T05:51:03;9.10;;;4.53;;
57443;SDS011;43289;52.962;6.196;2024-03-17T05:53:33;9.40;;;4.57;;
57443;SDS011;43289;52.962;6.196;2024-03-17T05:55:59;15.15;;;5.90;;
57443;SDS011;43289;52.962;6.196;2024-03-17T05:58:25;11.98;;;4.07;;
57443;SDS011;43289;52.962;6.196;2024-03-17T06:00:51;6.45;;;4.00;;
57443;SDS011;43289;52.962;6.196;2024-03-17T06:03:17;7.05;;;3.42;;
57443;SDS011;43289;52.962;6.196;2024-03-17T06:05:43;8.98;;;4.45;;
57443;SDS011;43289;52.962;6.196;2024-03-17T06:08:11;11.65;;;4.80;;
57443;SDS011;43289;52.962;6.196;2024-03-17T06:10:41;13.02;;;3.97;;
57443;SDS011;43289;52.962;6.196;2024-03-17T06:13:08;9.68;;;3.78;;
57443;SDS011;43289;52.962;6.196;2024-03-17T06:15:37;9.38;;;4.00;;
57443;SDS011;43289;52.962;6.196;2024-03-17T06:18:03;10.75;;;3.90;;
57443;SDS011;43289;52.962;6.196;2024-03-17T06:20:29;9.50;;;3.53;;
57443;SDS011;43289;52.962;6.196;2024-03-17T06:22:55;10.32;;;4.00;;
57443;SDS011;43289;52.962;6.196;2024-03-17T06:25:22;12.20;;;3.90;;
57443;SDS011;43289;52.962;6.196;2024-03-17T06:27:49;8.20;;;3.63;;
57443;SDS011;43289;52.962;6.196;2024-03-17T06:30:15;12.25;;;4.32;;
57443;SDS011;43289;52.962;6.196;2024-03-17T06:32:41;8.93;;;4.13;;
57443;SDS011;43289;52.962;6.196;2024-03-17T06:35:08;7.50;;;3.35;;
57443;SDS011;43289;52.962;6.196;2024-03-17T06:37:34;9.93;;;4.18;;
57443;SDS011;43289;52.962;6.196;2024-03-17T06:40:00;9.88;;;3.75;;
57443;SDS011;43289;52.962;6.196;2024-03-17T06:42:32;8.07;;;3.50;;
57443;SDS011;43289;52.962;6.196;2024-03-17T06:44:58;7.95;;;3.72;;
57443;SDS011;43289;52.962;6.196;2024-03-17T06:47:23;7.25;;;3.58;;
57443;SDS011;43289;52.962;6.196;2024-03-17T06:49:50;9.30;;;4.18;;
57443;SDS011;43289;52.962;6.196;2024-03-17T06:52:16;13.93;;;4.05;;
57443;SDS011;43289;52.962;6.196;2024-03-17T06:54:42;10.65;;;3.65;;
57443;SDS011;43289;52.962;6.196;2024-03-17T06:57:08;10.88;;;3.90;;
57443;SDS011;43289;52.962;6.196;2024-03-17T06:59:34;13.02;;;4.38;;
57443;SDS011;43289;52.962;6.196;2024-03-17T07:01:59;13.13;;;4.68;;
57443;SDS011;43289;52.962;6.196;2024-03-17T07:04:26;7.97;;;4.15;;
57443;SDS011;43289;52.962;6.196;2024-03-17T07:09:35;10.13;;;3.55;;
57443;SDS011;43289;52.962;6.196;2024-03-17T07:12:01;6.80;;;3.75;;
57443;SDS011;43289;52.962;6.196;2024-03-17T07:14:27;7.68;;;4.07;;
57443;SDS011;43289;52.962;6.196;2024-03-17T07:16:53;11.93;;;4.35;;
57443;SDS011;43289;52.962;6.196;2024-03-17T07:19:19;7.93;;;3.92;;
57443;SDS011;43289;52.962;6.196;2024-03-17T07:21:45;11.63;;;4.22;;
57443;SDS011;43289;52.962;6.196;2024-03-17T07:24:12;8.82;;;4.05;;
57443;SDS011;43289;52.962;6.196;2024-03-17T07:26:38;10.95;;;4.55;;
57443;SDS011;43289;52.962;6.196;2024-03-17T07:32:27;12.38;;;3.85;;
57443;SDS011;43289;52.962;6.196;2024-03-17T07:34:53;9.43;;;4.38;;
57443;SDS011;43289;52.962;6.196;2024-03-17T07:40:23;11.07;;;5.18;;
57443;SDS011;43289;52.962;6.196;2024-03-17T07:42:49;9.68;;;4.53;;
57443;SDS011;43289;52.962;6.196;2024-03-17T07:45:15;8.65;;;4.65;;
57443;SDS011;43289;52.962;6.196;2024-03-17T07:47:42;11.40;;;4.60;;
57443;SDS011;43289;52.962;6.196;2024-03-17T07:50:08;9.75;;;4.60;;
57443;SDS011;43289;52.962;6.196;2024-03-17T07:52:34;7.38;;;4.40;;
57443;SDS011;43289;52.962;6.196;2024-03-17T07:55:00;12.25;;;5.22;;
57443;SDS011;43289;52.962;6.196;2024-03-17T07:57:27;12.40;;;5.93;;
57443;SDS011;43289;52.962;6.196;2024-03-17T08:03:00;9.98;;;5.40;;
57443;SDS011;43289;52.962;6.196;2024-03-17T08:08:12;10.95;;;5.97;;
57443;SDS011;43289;52.962;6.196;2024-03-17T08:10:38;10.15;;;6.45;;
57443;SDS011;43289;52.962;6.196;2024-03-17T08:13:05;15.00;;;6.60;;
57443;SDS011;43289;52.962;6.196;2024-03-17T08:15:33;13.77;;;6.90;;
57443;SDS011;43289;52.962;6.196;2024-03-17T08:18:00;11.32;;;5.82;;
57443;SDS011;43289;52.962;6.196;2024-03-17T08:20:26;17.67;;;7.18;;
57443;SDS011;43289;52.962;6.196;2024-03-17T08:22:52;11.80;;;7.05;;
57443;SDS011;43289;52.962;6.196;2024-03-17T08:25:18;15.13;;;6.68;;
57443;SDS011;43289;52.962;6.196;2024-03-17T08:27:45;14.98;;;8.65;;
57443;SDS011;43289;52.962;6.196;2024-03-17T08:30:11;9.73;;;7.07;;
57443;SDS011;43289;52.962;6.196;2024-03-17T08:32:41;16.38;;;8.20;;
57443;SDS011;43289;52.962;6.196;2024-03-17T08:38:30;14.88;;;7.25;;
57443;SDS011;43289;52.962;6.196;2024-03-17T08:40:57;10.70;;;6.95;;
57443;SDS011;43289;52.962;6.196;2024-03-17T08:43:23;15.15;;;7.72;;
57443;SDS011;43289;52.962;6.196;2024-03-17T08:48:24;11.27;;;8.00;;
57443;SDS011;43289;52.962;6.196;2024-03-17T08:50:51;13.35;;;8.63;;
57443;SDS011;43289;52.962;6.196;2024-03-17T08:53:17;12.38;;;8.05;;
57443;SDS011;43289;52.962;6.196;2024-03-17T08:55:43;10.68;;;7.43;;
57443;SDS011;43289;52.962;6.196;2024-03-17T08:58:09;12.45;;;8.20;;
57443;SDS011;43289;52.962;6.196;2024-03-17T09:00:36;14.20;;;7.95;;
57443;SDS011;43289;52.962;6.196;2024-03-17T09:03:02;13.25;;;7.85;;
57443;SDS011;43289;52.962;6.196;2024-03-17T09:05:28;11.45;;;8.20;;
57443;SDS011;43289;52.962;6.196;2024-03-17T09:07:54;12.45;;;8.02;;
57443;SDS011;43289;52.962;6.196;2024-03-17T09:10:21;11.38;;;7.30;;
57443;SDS011;43289;52.962;6.196;2024-03-17T09:12:47;10.77;;;7.57;;
57443;SDS011;43289;52.962;6.196;2024-03-17T09:15:13;13.90;;;8.48;;
57443;SDS011;43289;52.962;6.196;2024-03-17T09:17:39;13.80;;;7.60;;
57443;SDS011;43289;52.962;6.196;2024-03-17T09:20:06;16.52;;;8.07;;
57443;SDS011;43289;52.962;6.196;2024-03-17T09:22:37;12.00;;;7.05;;
57443;SDS011;43289;52.962;6.196;2024-03-17T09:25:06;15.05;;;8.35;;
57443;SDS011;43289;52.962;6.196;2024-03-17T09:27:32;12.93;;;7.75;;
57443;SDS011;43289;52.962;6.196;2024-03-17T09:29:59;14.73;;;7.57;;
57443;SDS011;43289;52.962;6.196;2024-03-17T09:32:25;13.73;;;7.65;;
57443;SDS011;43289;52.962;6.196;2024-03-17T09:34:51;13.40;;;6.88;;
57443;SDS011;43289;52.962;6.196;2024-03-17T09:37:17;11.50;;;6.88;;
57443;SDS011;43289;52.962;6.196;2024-03-17T09:39:46;10.75;;;7.15;;
57443;SDS011;43289;52.962;6.196;2024-03-17T09:42:17;10.95;;;6.65;;
57443;SDS011;43289;52.962;6.196;2024-03-17T09:44:46;12.80;;;7.70;;
57443;SDS011;43289;52.962;6.196;2024-03-17T09:47:16;10.88;;;6.63;;
57443;SDS011;43289;52.962;6.196;2024-03-17T09:49:45;12.43;;;6.97;;
57443;SDS011;43289;52.962;6.196;2024-03-17T09:55:16;13.30;;;6.70;;
57443;SDS011;43289;52.962;6.196;2024-03-17T09:57:43;11.02;;;7.20;;
57443;SDS011;43289;52.962;6.196;2024-03-17T10:00:10;14.93;;;6.63;;
57443;SDS011;43289;52.962;6.196;2024-03-17T10:02:43;11.63;;;6.68;;
57443;SDS011;43289;52.962;6.196;2024-03-17T10:05:19;11.23;;;7.00;;
57443;SDS011;43289;52.962;6.196;2024-03-17T10:07:46;9.75;;;7.03;;
57443;SDS011;43289;52.962;6.196;2024-03-17T10:10:13;10.07;;;6.93;;
57443;SDS011;43289;52.962;6.196;2024-03-17T10:12:41;11.18;;;6.15;;
57443;SDS011;43289;52.962;6.196;2024-03-17T10:15:07;9.60;;;6.85;;
57443;SDS011;43289;52.962;6.196;2024-03-17T10:17:36;15.10;;;7.65;;
57443;SDS011;43289;52.962;6.196;2024-03-17T10:23:25;15.90;;;7.28;;
57443;SDS011;43289;52.962;6.196;2024-03-17T10:25:53;10.13;;;7.05;;
57443;SDS011;43289;52.962;6.196;2024-03-17T10:30:59;10.07;;;6.88;;
57443;SDS011;43289;52.962;6.196;2024-03-17T10:33:26;11.40;;;7.35;;
57443;SDS011;43289;52.962;6.196;2024-03-17T10:35:59;10.82;;;6.97;;
57443;SDS011;43289;52.962;6.196;2024-03-17T10:38:26;12.00;;;7.13;;
57443;SDS011;43289;52.962;6.196;2024-03-17T10:40:52;11.65;;;7.00;;
57443;SDS011;43289;52.962;6.196;2024-03-17T10:43:19;9.30;;;6.65;;
57443;SDS011;43289;52.962;6.196;2024-03-17T10:45:49;10.57;;;6.95;;
57443;SDS011;43289;52.962;6.196;2024-03-17T10:48:16;11.05;;;6.78;;
57443;SDS011;43289;52.962;6.196;2024-03-17T10:50:46;9.75;;;7.70;;
57443;SDS011;43289;52.962;6.196;2024-03-17T10:53:13;10.27;;;7.57;;
57443;SDS011;43289;52.962;6.196;2024-03-17T10:55:44;13.55;;;8.43;;
57443;SDS011;43289;52.962;6.196;2024-03-17T10:58:23;9.55;;;7.35;;
57443;SDS011;43289;52.962;6.196;2024-03-17T11:00:52;15.23;;;7.75;;
57443;SDS011;43289;52.962;6.196;2024-03-17T11:03:19;12.05;;;8.00;;
57443;SDS011;43289;52.962;6.196;2024-03-17T11:05:46;12.40;;;7.95;;
57443;SDS011;43289;52.962;6.196;2024-03-17T11:08:14;11.10;;;7.75;;
57443;SDS011;43289;52.962;6.196;2024-03-17T11:10:41;12.57;;;7.50;;
57443;SDS011;43289;52.962;6.196;2024-03-17T11:13:27;10.48;;;7.50;;
57443;SDS011;43289;52.962;6.196;2024-03-17T11:15:53;11.43;;;7.93;;
57443;SDS011;43289;52.962;6.196;2024-03-17T11:20:59;10.63;;;7.20;;
57443;SDS011;43289;52.962;6.196;2024-03-17T11:23:32;10.18;;;7.60;;
57443;SDS011;43289;52.962;6.196;2024-03-17T11:25:58;10.15;;;7.88;;
57443;SDS011;43289;52.962;6.196;2024-03-17T11:33:54;14.60;;;7.85;;
57443;SDS011;43289;52.962;6.196;2024-03-17T11:39:02;7.78;;;6.32;;
57443;SDS011;43289;52.962;6.196;2024-03-17T11:41:40;9.68;;;7.25;;
57443;SDS011;43289;52.962;6.196;2024-03-17T11:49:33;7.22;;;5.50;;
57443;SDS011;43289;52.962;6.196;2024-03-17T11:52:00;8.52;;;5.93;;
57443;SDS011;43289;52.962;6.196;2024-03-17T11:54:33;11.40;;;6.45;;
57443;SDS011;43289;52.962;6.196;2024-03-17T11:57:01;10.18;;;6.53;;
57443;SDS011;43289;52.962;6.196;2024-03-17T11:59:27;13.23;;;6.53;;
57443;SDS011;43289;52.962;6.196;2024-03-17T12:01:54;8.73;;;6.30;;
57443;SDS011;43289;52.962;6.196;2024-03-17T12:04:21;12.68;;;6.50;;
57443;SDS011;43289;52.962;6.196;2024-03-17T12:06:51;7.05;;;5.70;;
57443;SDS011;43289;52.962;6.196;2024-03-17T12:09:18;8.63;;;6.53;;
57443;SDS011;43289;52.962;6.196;2024-03-17T12:11:49;8.88;;;6.60;;
57443;SDS011;43289;52.962;6.196;2024-03-17T12:16:49;7.88;;;5.30;;
57443;SDS011;43289;52.962;6.196;2024-03-17T12:19:16;8.45;;;5.85;;
57443;SDS011;43289;52.962;6.196;2024-03-17T12:22:02;10.32;;;5.63;;
57443;SDS011;43289;52.962;6.196;2024-03-17T12:24:32;9.52;;;6.57;;
57443;SDS011;43289;52.962;6.196;2024-03-17T12:26:58;7.38;;;5.65;;
57443;SDS011;43289;52.962;6.196;2024-03-17T12:29:26;11.32;;;7.35;;
57443;SDS011;43289;52.962;6.196;2024-03-17T12:32:00;10.48;;;6.45;;
57443;SDS011;43289;52.962;6.196;2024-03-17T12:34:27;9.63;;;6.07;;
57443;SDS011;43289;52.962;6.196;2024-03-17T12:37:02;8.30;;;6.07;;
57443;SDS011;43289;52.962;6.196;2024-03-17T12:39:29;8.85;;;5.82;;
57443;SDS011;43289;52.962;6.196;2024-03-17T12:42:12;9.10;;;6.70;;
57443;SDS011;43289;52.962;6.196;2024-03-17T12:44:48;10.18;;;6.28;;
57443;SDS011;43289;52.962;6.196;2024-03-17T12:47:15;8.95;;;6.47;;
57443;SDS011;43289;52.962;6.196;2024-03-17T12:49:45;10.40;;;5.93;;
57443;SDS011;43289;52.962;6.196;2024-03-17T12:55:09;8.90;;;6.40;;
57443;SDS011;43289;52.962;6.196;2024-03-17T13:01:08;8.00;;;5.88;;
57443;SDS011;43289;52.962;6.196;2024-03-17T13:03:34;7.68;;;5.90;;
57443;SDS011;43289;52.962;6.196;2024-03-17T13:06:01;9.55;;;6.78;;
57443;SDS011;43289;52.962;6.196;2024-03-17T13:08:33;9.70;;;6.20;;
57443;SDS011;43289;52.962;6.196;2024-03-17T13:11:00;7.80;;;6.32;;
57443;SDS011;43289;52.962;6.196;2024-03-17T13:13:29;8.05;;;5.90;;
57443;SDS011;43289;52.962;6.196;2024-03-17T13:15:55;8.60;;;6.35;;
57443;SDS011;43289;52.962;6.196;2024-03-17T13:18:21;8.20;;;6.43;;
57443;SDS011;43289;52.962;6.196;2024-03-17T13:20:47;10.63;;;6.68;;
57443;SDS011;43289;52.962;6.196;2024-03-17T13:23:19;7.82;;;5.60;;
57443;SDS011;43289;52.962;6.196;2024-03-17T13:25:46;9.27;;;6.82;;
57443;SDS011;43289;52.962;6.196;2024-03-17T13:28:13;9.60;;;6.57;;
57443;SDS011;43289;52.962;6.196;2024-03-17T13:30:39;9.30;;;7.03;;
57443;SDS011;43289;52.962;6.196;2024-03-17T13:33:07;8.65;;;6.32;;
57443;SDS011;43289;52.962;6.196;2024-03-17T13:35:37;9.95;;;6.47;;
57443;SDS011;43289;52.962;6.196;2024-03-17T13:38:07;8.40;;;6.47;;
57443;SDS011;43289;52.962;6.196;2024-03-17T13:40:35;8.05;;;6.28;;
57443;SDS011;43289;52.962;6.196;2024-03-17T13:43:01;8.55;;;6.57;;
57443;SDS011;43289;52.962;6.196;2024-03-17T13:45:28;9.38;;;6.53;;
57443;SDS011;43289;52.962;6.196;2024-03-17T13:47:59;8.88;;;6.95;;
57443;SDS011;43289;52.962;6.196;2024-03-17T13:50:25;9.40;;;7.35;;
57443;SDS011;43289;52.962;6.196;2024-03-17T13:52:51;7.45;;;5.85;;
57443;SDS011;43289;52.962;6.196;2024-03-17T13:55:18;8.10;;;6.30;;
57443;SDS011;43289;52.962;6.196;2024-03-17T13:57:45;8.48;;;6.55;;
57443;SDS011;43289;52.962;6.196;2024-03-17T14:00:12;8.77;;;6.45;;
57443;SDS011;43289;52.962;6.196;2024-03-17T14:02:45;32.35;;;9.88;;
57443;SDS011;43289;52.962;6.196;2024-03-17T14:05:18;10.43;;;6.43;;
57443;SDS011;43289;52.962;6.196;2024-03-17T14:07:44;10.38;;;6.43;;
57443;SDS011;43289;52.962;6.196;2024-03-17T14:10:11;9.90;;;6.35;;
57443;SDS011;43289;52.962;6.196;2024-03-17T14:12:38;8.65;;;5.90;;
57443;SDS011;43289;52.962;6.196;2024-03-17T14:15:04;9.63;;;6.18;;
57443;SDS011;43289;52.962;6.196;2024-03-17T14:17:31;9.57;;;6.25;;
57443;SDS011;43289;52.962;6.196;2024-03-17T14:19:57;8.45;;;6.20;;
57443;SDS011;43289;52.962;6.196;2024-03-17T14:22:23;9.27;;;6.13;;
57443;SDS011;43289;52.962;6.196;2024-03-17T14:24:49;9.05;;;6.35;;
57443;SDS011;43289;52.962;6.196;2024-03-17T14:27:15;8.18;;;5.82;;
57443;SDS011;43289;52.962;6.196;2024-03-17T14:29:43;8.90;;;6.07;;
57443;SDS011;43289;52.962;6.196;2024-03-17T14:32:09;9.25;;;6.70;;
57443;SDS011;43289;52.962;6.196;2024-03-17T14:34:35;10.43;;;6.40;;
57443;SDS011;43289;52.962;6.196;2024-03-17T14:37:04;9.10;;;6.75;;
57443;SDS011;43289;52.962;6.196;2024-03-17T14:39:30;9.25;;;7.13;;
57443;SDS011;43289;52.962;6.196;2024-03-17T14:41:57;9.65;;;6.90;;
57443;SDS011;43289;52.962;6.196;2024-03-17T14:44:23;9.45;;;6.35;;
57443;SDS011;43289;52.962;6.196;2024-03-17T14:46:49;10.40;;;6.97;;
57443;SDS011;43289;52.962;6.196;2024-03-17T14:49:20;11.15;;;6.82;;
57443;SDS011;43289;52.962;6.196;2024-03-17T14:51:46;8.77;;;6.80;;
57443;SDS011;43289;52.962;6.196;2024-03-17T14:54:13;12.48;;;6.75;;
57443;SDS011;43289;52.962;6.196;2024-03-17T14:56:39;9.80;;;7.50;;
57443;SDS011;43289;52.962;6.196;2024-03-17T14:59:08;9.07;;;6.80;;
57443;SDS011;43289;52.962;6.196;2024-03-17T15:01:34;9.13;;;6.65;;
57443;SDS011;43289;52.962;6.196;2024-03-17T15:04:00;8.70;;;6.72;;
57443;SDS011;43289;52.962;6.196;2024-03-17T15:06:26;9.60;;;6.45;;
57443;SDS011;43289;52.962;6.196;2024-03-17T15:08:52;10.98;;;7.05;;
57443;SDS011;43289;52.962;6.196;2024-03-17T15:11:18;8.73;;;6.95;;
57443;SDS011;43289;52.962;6.196;2024-03-17T15:13:45;10.13;;;7.70;;
57443;SDS011;43289;52.962;6.196;2024-03-17T15:16:11;10.50;;;7.15;;
57443;SDS011;43289;52.962;6.196;2024-03-17T15:18:40;8.70;;;6.72;;
57443;SDS011;43289;52.962;6.196;2024-03-17T15:21:07;10.00;;;6.85;;
57443;SDS011;43289;52.962;6.196;2024-03-17T15:23:34;10.38;;;6.80;;
57443;SDS011;43289;52.962;6.196;2024-03-17T15:26:03;8.95;;;6.65;;
57443;SDS011;43289;52.962;6.196;2024-03-17T15:28:38;8.57;;;6.50;;
57443;SDS011;43289;52.962;6.196;2024-03-17T15:31:04;10.18;;;7.15;;
57443;SDS011;43289;52.962;6.196;2024-03-17T15:33:31;8.77;;;6.72;;
57443;SDS011;43289;52.962;6.196;2024-03-17T15:36:00;9.40;;;7.38;;
57443;SDS011;43289;52.962;6.196;2024-03-17T15:38:29;9.43;;;6.63;;
57443;SDS011;43289;52.962;6.196;2024-03-17T15:40:56;9.52;;;6.80;;
57443;SDS011;43289;52.962;6.196;2024-03-17T15:43:22;10.13;;;6.75;;
57443;SDS011;43289;52.962;6.196;2024-03-17T15:45:48;11.25;;;8.20;;
57443;SDS011;43289;52.962;6.196;2024-03-17T15:48:14;10.10;;;7.57;;
57443;SDS011;43289;52.962;6.196;2024-03-17T15:50:40;10.35;;;7.50;;
57443;SDS011;43289;52.962;6.196;2024-03-17T15:53:08;12.40;;;8.07;;
57443;SDS011;43289;52.962;6.196;2024-03-17T15:55:34;9.52;;;6.72;;
57443;SDS011;43289;52.962;6.196;2024-03-17T15:58:00;9.38;;;7.53;;
57443;SDS011;43289;52.962;6.196;2024-03-17T16:00:26;10.95;;;7.60;;
57443;SDS011;43289;52.962;6.196;2024-03-17T16:02:52;9.20;;;7.07;;